Time;durP1;ratioP1;P1;durP2;ratioP2;P2;SDS_P1;SDS_P2;PMS_P1;PMS_P2;Temp;Humidity;BMP_temperature;BMP_pressure;BME280_temperature;BME280_humidity;BME280_pressure;Samples;Min_cycle;Max_cycle;Signal;HPM_P1;HPM_P2
2024/04/14 00:00:27;;;;;;;;;;;23.90;47.60;;;;;;3054496;19;4689;-30
2024/04/14 00:01:28;;;;;;;;;;;23.90;47.60;;;;;;3032731;19;4538;-34
2024/04/14 00:02:28;;;;;;;;;;;23.90;47.60;;;;;;3055011;19;4822;-31
2024/04/14 00:03:29;;;;;;;;;;;23.90;47.60;;;;;;3055472;19;4686;-32
2024/04/14 00:04:30;;;;;;;;;;;23.90;47.60;;;;;;3033038;19;4516;-34
2024/04/14 00:05:30;;;;;;;;;;;23.90;47.60;;;;;;3054436;19;4652;-30
2024/04/14 00:06:31;;;;;;;;;;;23.90;47.60;;;;;;3033235;19;4646;-30
2024/04/14 00:07:32;;;;;;;;;;;23.90;47.60;;;;;;3055192;19;4659;-34
2024/04/14 00:08:32;;;;;;;;;;;23.90;47.60;;;;;;3055282;19;4920;-33
2024/04/14 00:09:33;;;;;;;;;;;23.90;47.60;;;;;;3033896;19;4530;-33
2024/04/14 00:10:34;;;;;;;;;;;23.80;47.60;;;;;;3054739;19;4676;-34
2024/04/14 00:11:34;;;;;;;;;;;23.80;47.60;;;;;;3048005;19;4687;-33
2024/04/14 00:12:35;;;;;;;;;;;23.90;47.60;;;;;;3046449;19;4649;-34
2024/04/14 00:13:36;;;;;;;;;;;23.80;47.60;;;;;;3055335;19;4778;-33
2024/04/14 00:14:37;;;;;;;;;;;23.80;47.60;;;;;;3031886;19;4663;-32
2024/04/14 00:15:38;;;;;;;;;;;23.80;47.60;;;;;;3054616;19;4685;-32
2024/04/14 00:16:38;;;;;;;;;;;23.80;47.60;;;;;;3054568;19;4829;-33
2024/04/14 00:17:39;;;;;;;;;;;23.80;47.70;;;;;;3032170;19;4614;-34
2024/04/14 00:18:39;;;;;;;;;;;23.80;47.60;;;;;;3052989;19;4736;-25
2024/04/14 00:19:40;;;;;;;;;;;23.80;47.60;;;;;;3032961;19;5315;-24
2024/04/14 00:20:41;;;;;;;;;;;23.80;47.60;;;;;;3052896;19;4673;-23
2024/04/14 00:21:41;;;;;;;;;;;23.80;47.60;;;;;;3054561;19;4740;-23
2024/04/14 00:22:43;;;;;;;;;;;23.80;47.60;;;;;;3031814;19;4699;-24
2024/04/14 00:23:43;;;;;;;;;;;23.80;47.60;;;;;;3054894;19;4717;-23
2024/04/14 00:24:44;;;;;;;;;;;23.80;47.70;;;;;;3054604;19;4705;-25
2024/04/14 00:25:45;;;;;;;;;;;23.70;47.60;;;;;;3033347;19;4497;-25
2024/04/14 00:26:48;;;;;;;;;;;23.80;47.70;;;;;;3054321;19;4658;-26
2024/04/14 00:27:51;;;;;;;;;;;23.80;47.70;;;;;;3033019;19;4647;-26
2024/04/14 00:28:52;;;;;;;;;;;23.90;47.70;;;;;;3054695;19;4685;-24
2024/04/14 00:29:53;;;;;;;;;;;23.80;47.70;;;;;;3054976;19;4675;-26
2024/04/14 00:30:53;;;;;;;;;;;23.70;47.60;;;;;;3033002;19;4587;-25
2024/04/14 00:31:54;;;;;;;;;;;23.70;47.60;;;;;;3054504;19;4654;-24
2024/04/14 00:32:54;;;;;;;;;;;23.70;47.60;;;;;;3047160;19;4757;-24
2024/04/14 00:33:55;;;;;;;;;;;23.70;47.60;;;;;;3047010;19;4718;-25
2024/04/14 00:34:56;;;;;;;;;;;23.80;47.80;;;;;;3053326;19;4592;-24
2024/04/14 00:35:56;;;;;;;;;;;23.70;47.60;;;;;;3033498;19;4876;-24
2024/04/14 00:36:57;;;;;;;;;;;23.70;47.70;;;;;;3054238;19;4606;-26
2024/04/14 00:37:58;;;;;;;;;;;23.70;47.70;;;;;;3054532;19;4596;-25
2024/04/14 00:38:58;;;;;;;;;;;23.70;47.70;;;;;;3032237;19;4703;-33
2024/04/14 00:39:59;;;;;;;;;;;23.70;47.70;;;;;;3054681;19;4623;-32
2024/04/14 00:41:00;;;;;;;;;;;23.70;47.80;;;;;;3033189;19;4643;-29
2024/04/14 00:42:00;;;;;;;;;;;23.70;47.80;;;;;;3054269;19;4673;-33
2024/04/14 00:43:01;;;;;;;;;;;23.70;47.80;;;;;;3054228;19;4601;-30
2024/04/14 00:44:02;;;;;;;;;;;23.70;47.80;;;;;;3033260;19;4650;-34
2024/04/14 00:45:02;;;;;;;;;;;23.60;47.70;;;;;;3054255;19;4617;-30
2024/04/14 00:46:03;;;;;;;;;;;23.70;47.80;;;;;;3054478;19;4626;-32
2024/04/14 00:47:04;;;;;;;;;;;23.70;47.80;;;;;;3031705;19;4598;-32
2024/04/14 00:48:05;;;;;;;;;;;23.60;47.80;;;;;;3053825;19;4660;-30
2024/04/14 00:49:05;;;;;;;;;;;23.60;47.80;;;;;;3032050;19;4603;-33
2024/04/14 00:50:07;;;;;;;;;;;23.60;47.80;;;;;;3053993;19;4605;-29
2024/04/14 00:51:08;;;;;;;;;;;23.60;47.80;;;;;;3054407;19;4759;-31
2024/04/14 00:52:08;;;;;;;;;;;23.70;47.90;;;;;;3032618;19;4617;-30
2024/04/14 00:53:09;;;;;;;;;;;23.60;47.90;;;;;;3053839;19;4708;-34
2024/04/14 00:54:11;;;;;;;;;;;23.60;47.90;;;;;;3053158;19;4719;-30
2024/04/14 00:55:11;;;;;;;;;;;23.60;47.90;;;;;;3032226;19;4590;-32
2024/04/14 00:56:13;;;;;;;;;;;23.60;47.90;;;;;;3051688;19;4839;-31
2024/04/14 00:57:14;;;;;;;;;;;23.60;48.00;;;;;;3031772;19;4481;-30
2024/04/14 00:58:15;;;;;;;;;;;23.60;47.90;;;;;;3052837;19;4799;-29
2024/04/14 00:59:15;;;;;;;;;;;23.60;48.00;;;;;;3054083;19;4664;-32
2024/04/14 01:00:16;;;;;;;;;;;23.60;48.00;;;;;;3032351;19;4531;-29
2024/04/14 01:01:17;;;;;;;;;;;23.60;48.00;;;;;;3053800;19;4747;-34
2024/04/14 01:02:17;;;;;;;;;;;23.60;48.00;;;;;;3031829;19;4674;-33
2024/04/14 01:03:18;;;;;;;;;;;23.60;48.00;;;;;;3054402;19;5235;-31
2024/04/14 01:04:19;;;;;;;;;;;23.60;48.10;;;;;;3053207;19;4681;-35
2024/04/14 01:05:21;;;;;;;;;;;23.60;48.00;;;;;;3031802;19;4477;-31
2024/04/14 01:06:22;;;;;;;;;;;23.60;48.00;;;;;;3054157;19;4683;-33
2024/04/14 01:07:22;;;;;;;;;;;23.60;48.10;;;;;;3053866;19;4678;-33
2024/04/14 01:08:23;;;;;;;;;;;23.60;48.70;;;;;;3032565;19;4607;-35
2024/04/14 01:09:23;;;;;;;;;;;23.60;48.10;;;;;;3054655;19;4905;-35
2024/04/14 01:10:25;;;;;;;;;;;23.60;48.10;;;;;;3032627;19;4686;-30
2024/04/14 01:11:26;;;;;;;;;;;23.60;48.10;;;;;;3053844;19;4716;-30
2024/04/14 01:12:26;;;;;;;;;;;23.50;48.10;;;;;;3053526;19;4662;-33
2024/04/14 01:13:27;;;;;;;;;;;23.50;48.10;;;;;;3033045;19;4596;-32
2024/04/14 01:14:27;;;;;;;;;;;23.60;48.20;;;;;;3053483;19;4709;-30
2024/04/14 01:15:28;;;;;;;;;;;23.50;48.10;;;;;;3053435;19;4715;-31
2024/04/14 01:16:29;;;;;;;;;;;23.50;48.10;;;;;;3032174;19;4602;-34
2024/04/14 01:17:29;;;;;;;;;;;23.50;48.10;;;;;;3053886;19;4685;-33
2024/04/14 01:18:30;;;;;;;;;;;23.50;48.10;;;;;;3032499;19;4750;-30
2024/04/14 01:19:31;;;;;;;;;;;23.50;48.10;;;;;;3054486;19;4816;-32
2024/04/14 01:20:31;;;;;;;;;;;22.90;47.90;;;;;;3054034;19;4650;-30
2024/04/14 01:21:32;;;;;;;;;;;23.50;48.10;;;;;;3031000;19;4556;-31
2024/04/14 01:22:33;;;;;;;;;;;23.50;48.10;;;;;;3054469;19;4657;-33
2024/04/14 01:23:33;;;;;;;;;;;23.50;48.10;;;;;;3054809;19;4684;-35
2024/04/14 01:24:34;;;;;;;;;;;23.50;48.10;;;;;;3032059;19;22838;-33
2024/04/14 01:25:35;;;;;;;;;;;23.50;48.20;;;;;;3054611;19;4636;-30
2024/04/14 01:26:35;;;;;;;;;;;23.50;48.10;;;;;;3032096;19;4662;-33
2024/04/14 01:27:36;;;;;;;;;;;23.50;48.20;;;;;;3053594;19;4656;-33
2024/04/14 01:28:36;;;;;;;;;;;23.50;48.20;;;;;;3053588;19;4654;-24
2024/04/14 01:29:37;;;;;;;;;;;23.50;48.20;;;;;;3032648;19;4649;-24
2024/04/14 01:30:38;;;;;;;;;;;23.50;48.30;;;;;;3053827;19;4650;-24
2024/04/14 01:31:39;;;;;;;;;;;23.40;48.10;;;;;;3032097;19;4682;-24
2024/04/14 01:32:39;;;;;;;;;;;23.40;48.10;;;;;;3054096;19;4603;-26
2024/04/14 01:33:40;;;;;;;;;;;23.40;48.10;;;;;;3053713;19;4835;-25
2024/04/14 01:34:41;;;;;;;;;;;23.40;48.90;;;;;;3032308;19;4588;-25
2024/04/14 01:35:43;;;;;;;;;;;23.40;48.10;;;;;;3054136;19;4867;-24
2024/04/14 01:36:43;;;;;;;;;;;23.40;48.10;;;;;;3054293;19;5270;-24
2024/04/14 01:37:44;;;;;;;;;;;23.40;48.20;;;;;;3032087;19;4497;-25
2024/04/14 01:38:45;;;;;;;;;;;23.40;48.20;;;;;;3053008;19;4721;-25
2024/04/14 01:39:45;;;;;;;;;;;23.40;48.20;;;;;;3032048;19;4627;-26
2024/04/14 01:40:46;;;;;;;;;;;23.40;48.10;;;;;;3053504;19;4721;-26
2024/04/14 01:41:47;;;;;;;;;;;23.40;48.10;;;;;;3053703;19;4702;-24
2024/04/14 01:42:47;;;;;;;;;;;23.40;48.10;;;;;;3031505;19;4673;-24
2024/04/14 01:43:48;;;;;;;;;;;23.40;48.10;;;;;;3053513;19;4703;-24
2024/04/14 01:44:49;;;;;;;;;;;23.30;48.10;;;;;;3053546;19;4644;-26
2024/04/14 01:45:50;;;;;;;;;;;23.40;48.20;;;;;;3029040;19;4633;-26
2024/04/14 01:46:51;;;;;;;;;;;23.40;48.20;;;;;;3052709;19;4615;-24
2024/04/14 01:47:52;;;;;;;;;;;23.40;48.10;;;;;;3031788;19;4707;-24
2024/04/14 01:48:52;;;;;;;;;;;23.40;48.20;;;;;;3053878;19;4655;-31
2024/04/14 01:49:54;;;;;;;;;;;21.60;47.20;;;;;;3054167;19;4654;-31
2024/04/14 01:50:56;;;;;;;;;;;23.40;48.20;;;;;;3031454;19;4583;-31
2024/04/14 01:51:58;;;;;;;;;;;23.30;48.20;;;;;;3052106;19;4687;-33
2024/04/14 01:52:59;;;;;;;;;;;23.30;48.20;;;;;;3032401;19;4798;-32
2024/04/14 01:53:59;;;;;;;;;;;23.30;48.20;;;;;;3053785;19;4726;-31
2024/04/14 01:55:00;;;;;;;;;;;23.30;48.20;;;;;;3054136;19;4705;-32
2024/04/14 01:56:00;;;;;;;;;;;23.30;48.20;;;;;;3032727;19;4618;-32
2024/04/14 01:57:01;;;;;;;;;;;23.30;48.20;;;;;;3052987;19;4667;-32
2024/04/14 01:58:02;;;;;;;;;;;23.30;48.20;;;;;;3052749;19;4709;-29
2024/04/14 01:59:03;;;;;;;;;;;23.30;48.20;;;;;;3031092;19;4692;-33
2024/04/14 02:00:04;;;;;;;;;;;23.30;48.20;;;;;;3053352;19;4642;-32
2024/04/14 02:01:04;;;;;;;;;;;23.30;48.20;;;;;;3028444;19;4620;-31
2024/04/14 02:02:05;;;;;;;;;;;23.30;48.20;;;;;;3053114;19;4631;-35
2024/04/14 02:03:06;;;;;;;;;;;23.30;48.20;;;;;;3054069;19;4521;-33
2024/04/14 02:04:06;;;;;;;;;;;23.30;48.30;;;;;;3031224;19;4573;-31
2024/04/14 02:05:07;;;;;;;;;;;23.30;48.20;;;;;;3052508;19;5216;-32
2024/04/14 02:06:08;;;;;;;;;;;23.30;48.20;;;;;;3053293;19;4684;-30
2024/04/14 02:07:09;;;;;;;;;;;23.30;48.20;;;;;;3031574;19;4110;-33
2024/04/14 02:08:09;;;;;;;;;;;23.30;48.20;;;;;;3051738;19;4779;-31
2024/04/14 02:09:11;;;;;;;;;;;23.30;48.20;;;;;;3031980;19;4585;-30
2024/04/14 02:10:12;;;;;;;;;;;23.30;48.20;;;;;;3052764;19;4700;-31
2024/04/14 02:11:13;;;;;;;;;;;23.30;48.30;;;;;;3053572;19;4597;-32
2024/04/14 02:12:13;;;;;;;;;;;23.30;48.30;;;;;;3031455;19;4513;-31
2024/04/14 02:13:14;;;;;;;;;;;23.30;48.20;;;;;;3052863;19;4677;-31
2024/04/14 02:14:14;;;;;;;;;;;23.30;48.20;;;;;;3046497;19;4742;-30
2024/04/14 02:15:15;;;;;;;;;;;23.30;48.30;;;;;;3044087;19;1301;-33
2024/04/14 02:16:16;;;;;;;;;;;23.30;48.30;;;;;;3051864;19;4626;-34
2024/04/14 02:17:16;;;;;;;;;;;23.20;48.30;;;;;;3031967;19;4478;-31
2024/04/14 02:18:17;;;;;;;;;;;23.30;48.30;;;;;;3052329;19;4861;-32
2024/04/14 02:19:17;;;;;;;;;;;23.20;48.20;;;;;;3053646;19;4672;-33
2024/04/14 02:20:18;;;;;;;;;;;23.20;48.20;;;;;;3031884;19;4577;-33
2024/04/14 02:21:19;;;;;;;;;;;23.20;48.20;;;;;;3053290;19;4632;-34
2024/04/14 02:22:19;;;;;;;;;;;23.20;48.20;;;;;;3030416;19;4687;-33
2024/04/14 02:23:20;;;;;;;;;;;23.20;48.20;;;;;;3052820;19;4659;-30
2024/04/14 02:24:21;;;;;;;;;;;23.20;48.20;;;;;;3052684;19;4670;-33
2024/04/14 02:25:21;;;;;;;;;;;23.20;48.30;;;;;;3031447;19;4484;-32
2024/04/14 02:26:22;;;;;;;;;;;23.20;48.30;;;;;;3053317;19;4625;-35
2024/04/14 02:27:22;;;;;;;;;;;23.20;48.30;;;;;;3051844;19;4745;-35
2024/04/14 02:28:23;;;;;;;;;;;23.20;48.40;;;;;;3031307;19;4572;-25
2024/04/14 02:29:24;;;;;;;;;;;23.20;48.40;;;;;;3052954;19;4652;-26
2024/04/14 02:30:24;;;;;;;;;;;23.20;48.40;;;;;;3029829;19;4686;-27
2024/04/14 02:31:25;;;;;;;;;;;23.20;48.40;;;;;;3051421;19;4672;-26
2024/04/14 02:32:26;;;;;;;;;;;23.20;48.50;;;;;;3052701;19;4697;-25
2024/04/14 02:33:26;;;;;;;;;;;23.20;48.30;;;;;;3031549;19;4709;-25
2024/04/14 02:34:27;;;;;;;;;;;23.20;48.40;;;;;;3052913;19;4684;-24
2024/04/14 02:35:27;;;;;;;;;;;23.20;48.50;;;;;;3052465;19;4692;-23
2024/04/14 02:36:28;;;;;;;;;;;23.30;48.10;;;;;;3030343;19;4545;-24
2024/04/14 02:37:29;;;;;;;;;;;23.30;48.00;;;;;;3052799;19;4669;-23
2024/04/14 02:38:29;;;;;;;;;;;23.40;47.90;;;;;;3030648;19;4740;-25
2024/04/14 02:39:30;;;;;;;;;;;23.50;47.70;;;;;;3052796;19;4727;-24
2024/04/14 02:40:30;;;;;;;;;;;23.60;48.20;;;;;;3053261;19;4701;-24
2024/04/14 02:41:31;;;;;;;;;;;23.60;48.00;;;;;;3031146;19;4838;-24
2024/04/14 02:42:34;;;;;;;;;;;23.70;47.10;;;;;;3052436;19;4803;-25
2024/04/14 02:43:35;;;;;;;;;;;23.80;47.00;;;;;;3041878;19;4656;-25
2024/04/14 02:44:35;;;;;;;;;;;23.80;46.80;;;;;;3048973;19;4656;-26
2024/04/14 02:45:36;;;;;;;;;;;23.90;46.80;;;;;;3052777;19;4634;-26
2024/04/14 02:46:37;;;;;;;;;;;23.90;46.60;;;;;;3031459;19;4677;-25
2024/04/14 02:47:37;;;;;;;;;;;23.90;46.60;;;;;;3052819;19;4700;-24
2024/04/14 02:48:38;;;;;;;;;;;23.90;46.50;;;;;;3053597;19;4632;-25
2024/04/14 02:49:39;;;;;;;;;;;23.90;46.50;;;;;;3031327;19;4556;-26
2024/04/14 02:50:40;;;;;;;;;;;23.90;46.50;;;;;;3052865;19;4758;-25
2024/04/14 02:51:42;;;;;;;;;;;23.90;46.60;;;;;;3031495;19;4637;-26
2024/04/14 02:52:42;;;;;;;;;;;24.00;46.60;;;;;;3052437;19;4668;-24
2024/04/14 02:53:43;;;;;;;;;;;24.00;46.60;;;;;;3052531;19;4670;-23
2024/04/14 02:54:45;;;;;;;;;;;24.00;46.40;;;;;;3031236;19;4748;-23
2024/04/14 02:55:45;;;;;;;;;;;24.10;46.20;;;;;;3052202;19;4646;-24
2024/04/14 02:56:46;;;;;;;;;;;24.00;46.00;;;;;;3052995;19;4711;-24
2024/04/14 02:57:46;;;;;;;;;;;24.10;46.00;;;;;;3030548;19;4557;-23
2024/04/14 02:58:47;;;;;;;;;;;24.20;46.00;;;;;;3052584;19;4688;-23
2024/04/14 02:59:48;;;;;;;;;;;24.20;45.90;;;;;;3031816;19;4664;-24
2024/04/14 03:00:58;;;;;;;;;;;24.20;45.90;;;;;;3052815;19;4667;-24
2024/04/14 03:01:59;;;;;;;;;;;24.20;45.90;;;;;;3052622;19;4699;-24
2024/04/14 03:02:59;;;;;;;;;;;24.20;45.80;;;;;;3031113;19;4632;-26
2024/04/14 03:04:00;;;;;;;;;;;24.10;45.70;;;;;;3051704;19;4656;-24
2024/04/14 03:05:01;;;;;;;;;;;24.20;45.70;;;;;;3031423;19;4672;-24
2024/04/14 03:06:04;;;;;;;;;;;24.20;45.70;;;;;;3052742;19;4779;-26
2024/04/14 03:07:05;;;;;;;;;;;24.20;45.70;;;;;;3052651;19;4668;-25
2024/04/14 03:08:06;;;;;;;;;;;24.20;45.70;;;;;;3031544;19;4598;-23
2024/04/14 03:09:06;;;;;;;;;;;24.20;45.70;;;;;;3051724;19;4646;-26
2024/04/14 03:10:07;;;;;;;;;;;25.10;46.20;;;;;;3052044;19;4684;-24
2024/04/14 03:11:08;;;;;;;;;;;24.10;45.70;;;;;;3030463;19;4762;-24
2024/04/14 03:12:08;;;;;;;;;;;24.10;45.70;;;;;;3052389;19;4615;-26
2024/04/14 03:13:09;;;;;;;;;;;24.10;45.70;;;;;;3031078;19;4594;-25
2024/04/14 03:14:10;;;;;;;;;;;24.10;45.60;;;;;;3052853;19;999;-25
2024/04/14 03:15:11;;;;;;;;;;;24.10;45.60;;;;;;3051222;19;4649;-23
2024/04/14 03:16:11;;;;;;;;;;;24.10;45.70;;;;;;3030835;19;4518;-24
2024/04/14 03:17:12;;;;;;;;;;;24.10;45.70;;;;;;3052175;19;4681;-23
2024/04/14 03:18:13;;;;;;;;;;;24.10;45.60;;;;;;3052571;19;5263;-25
2024/04/14 03:19:13;;;;;;;;;;;24.10;45.60;;;;;;3030719;19;4589;-24
2024/04/14 03:20:15;;;;;;;;;;;24.10;45.60;;;;;;3051630;19;4843;-24
2024/04/14 03:21:15;;;;;;;;;;;24.10;45.60;;;;;;3028645;19;4595;-24
2024/04/14 03:22:16;;;;;;;;;;;24.10;45.70;;;;;;3052165;19;1314;-24
2024/04/14 03:23:16;;;;;;;;;;;24.10;45.80;;;;;;3051054;19;20742;-24
2024/04/14 03:24:18;;;;;;;;;;;24.10;45.70;;;;;;3030165;19;4779;-25
2024/04/14 03:25:18;;;;;;;;;;;24.10;45.70;;;;;;3052636;19;4726;-24
2024/04/14 03:26:19;;;;;;;;;;;24.10;45.70;;;;;;3029613;19;4708;-24
2024/04/14 03:27:19;;;;;;;;;;;24.10;45.70;;;;;;3052290;19;4696;-24
2024/04/14 03:28:27;;;;;;;;;;;24.10;45.80;;;;;;3053686;19;4690;-24
2024/04/14 03:29:27;;;;;;;;;;;24.10;45.80;;;;;;3034056;19;4541;-23
2024/04/14 03:30:29;;;;;;;;;;;24.10;45.80;;;;;;3055668;19;4686;-26
2024/04/14 03:31:30;;;;;;;;;;;24.10;45.90;;;;;;3055967;19;4661;-26
2024/04/14 03:32:30;;;;;;;;;;;24.00;45.90;;;;;;3033197;19;4561;-24
2024/04/14 03:33:31;;;;;;;;;;;24.00;45.90;;;;;;3055398;19;4713;-24
2024/04/14 03:34:32;;;;;;;;;;;24.00;46.00;;;;;;3034343;19;4644;-25
2024/04/14 03:35:32;;;;;;;;;;;24.00;46.00;;;;;;3054702;19;4688;-25
2024/04/14 03:36:33;;;;;;;;;;;24.00;45.90;;;;;;3055909;19;4676;-24
2024/04/14 03:37:35;;;;;;;;;;;24.00;46.00;;;;;;3033111;19;4636;-23
2024/04/14 03:38:36;;;;;;;;;;;24.00;46.00;;;;;;3054217;19;4786;-23
2024/04/14 03:39:37;;;;;;;;;;;24.00;46.00;;;;;;3034010;19;4707;-24
2024/04/14 03:40:37;;;;;;;;;;;23.90;46.00;;;;;;3054826;19;4654;-24
2024/04/14 03:41:38;;;;;;;;;;;24.00;46.10;;;;;;3054348;19;4797;-24
2024/04/14 03:42:39;;;;;;;;;;;24.00;46.10;;;;;;3033196;19;4705;-24
2024/04/14 03:43:39;;;;;;;;;;;23.90;46.10;;;;;;3054428;19;4694;-24
2024/04/14 03:44:40;;;;;;;;;;;23.90;46.20;;;;;;3054944;19;4681;-24
2024/04/14 03:45:41;;;;;;;;;;;23.90;46.10;;;;;;3033261;19;4644;-23
2024/04/14 03:46:42;;;;;;;;;;;23.90;46.10;;;;;;3054136;19;4682;-25
2024/04/14 03:47:43;;;;;;;;;;;23.90;46.20;;;;;;3034081;19;4655;-24
2024/04/14 03:48:43;;;;;;;;;;;23.90;46.20;;;;;;3054694;19;4624;-25
2024/04/14 03:49:44;;;;;;;;;;;23.80;46.20;;;;;;3055468;19;4625;-24
2024/04/14 03:50:45;;;;;;;;;;;23.80;46.10;;;;;;3032728;19;4862;-26
2024/04/14 03:51:46;;;;;;;;;;;23.80;46.20;;;;;;3054125;19;4669;-23
2024/04/14 03:52:46;;;;;;;;;;;23.80;46.20;;;;;;3055029;19;4678;-26
2024/04/14 03:53:47;;;;;;;;;;;23.80;46.30;;;;;;3033373;19;4579;-24
2024/04/14 03:54:48;;;;;;;;;;;23.80;46.30;;;;;;3055221;19;4757;-25
2024/04/14 03:55:48;;;;;;;;;;;23.70;46.30;;;;;;3033946;19;4669;-25
2024/04/14 03:56:49;;;;;;;;;;;23.80;46.40;;;;;;3055493;19;4687;-24
2024/04/14 03:57:50;;;;;;;;;;;23.70;46.40;;;;;;3055342;19;4618;-23
2024/04/14 03:58:50;;;;;;;;;;;23.70;46.50;;;;;;3033385;19;4887;-30
2024/04/14 03:59:51;;;;;;;;;;;23.70;46.40;;;;;;3055712;19;4627;-32
2024/04/14 04:00:52;;;;;;;;;;;23.70;46.50;;;;;;3055893;19;4640;-31
2024/04/14 04:01:52;;;;;;;;;;;23.70;46.50;;;;;;3033878;19;4635;-32
2024/04/14 04:02:53;;;;;;;;;;;23.70;46.40;;;;;;3055269;19;4735;-34
2024/04/14 04:03:53;;;;;;;;;;;23.70;46.50;;;;;;3033972;19;4624;-30
2024/04/14 04:04:54;;;;;;;;;;;23.60;46.40;;;;;;3055044;19;4674;-33
2024/04/14 04:05:55;;;;;;;;;;;23.70;46.40;;;;;;3053927;19;4618;-34
2024/04/14 04:06:55;;;;;;;;;;;23.60;46.90;;;;;;3033452;19;4812;-31
2024/04/14 04:07:56;;;;;;;;;;;23.60;46.20;;;;;;3054823;19;4619;-35
2024/04/14 04:08:57;;;;;;;;;;;23.60;46.20;;;;;;3033850;19;4666;-34
2024/04/14 04:09:57;;;;;;;;;;;23.60;46.30;;;;;;3054512;19;4657;-34
2024/04/14 04:11:04;;;;;;;;;;;23.60;46.30;;;;;;3055315;19;4657;-34
2024/04/14 04:12:05;;;;;;;;;;;23.60;46.30;;;;;;3033610;19;4593;-33
2024/04/14 04:13:06;;;;;;;;;;;23.60;46.20;;;;;;3054989;19;4567;-32
2024/04/14 04:14:06;;;;;;;;;;;23.60;46.20;;;;;;3054769;19;4656;-29
2024/04/14 04:15:07;;;;;;;;;;;23.60;46.30;;;;;;3032813;19;4567;-31
2024/04/14 04:16:07;;;;;;;;;;;23.60;46.20;;;;;;3054429;19;4689;-33
2024/04/14 04:17:08;;;;;;;;;;;23.60;46.20;;;;;;3033393;19;4474;-33
2024/04/14 04:18:09;;;;;;;;;;;23.60;46.20;;;;;;3053755;19;4725;-25
2024/04/14 04:19:10;;;;;;;;;;;23.60;46.10;;;;;;3055143;19;5238;-24
2024/04/14 04:20:11;;;;;;;;;;;23.60;46.20;;;;;;3033039;19;4577;-28
2024/04/14 04:21:11;;;;;;;;;;;23.60;45.80;;;;;;3055098;19;1076;-26
2024/04/14 04:22:12;;;;;;;;;;;23.70;45.60;;;;;;3054361;19;4619;-24
2024/04/14 04:23:13;;;;;;;;;;;23.70;45.40;;;;;;3032373;19;4593;-24
2024/04/14 04:24:13;;;;;;;;;;;23.70;45.40;;;;;;3053496;19;4693;-27
2024/04/14 04:25:14;;;;;;;;;;;23.80;45.30;;;;;;3033164;19;4515;-25
2024/04/14 04:26:14;;;;;;;;;;;23.90;45.10;;;;;;3054695;19;4691;-23
2024/04/14 04:27:15;;;;;;;;;;;23.90;44.90;;;;;;3055241;19;4651;-23
2024/04/14 04:28:16;;;;;;;;;;;23.90;44.70;;;;;;3032824;19;4567;-24
2024/04/14 04:29:16;;;;;;;;;;;24.00;44.60;;;;;;3054470;19;4746;-24
2024/04/14 04:30:17;;;;;;;;;;;24.00;44.50;;;;;;3032817;19;4716;-25
2024/04/14 04:31:18;;;;;;;;;;;24.00;44.40;;;;;;3054508;19;4678;-23
2024/04/14 04:32:19;;;;;;;;;;;24.10;44.30;;;;;;3054523;19;4681;-24
2024/04/14 04:33:19;;;;;;;;;;;24.10;44.30;;;;;;3033530;19;4968;-23
2024/04/14 04:34:20;;;;;;;;;;;24.10;44.30;;;;;;3054031;19;4852;-24
2024/04/14 04:35:21;;;;;;;;;;;24.10;44.20;;;;;;3054888;19;4676;-24
2024/04/14 04:36:22;;;;;;;;;;;24.10;44.10;;;;;;3032850;19;4779;-24
2024/04/14 04:37:22;;;;;;;;;;;24.10;44.10;;;;;;3054541;19;4710;-23
2024/04/14 04:38:23;;;;;;;;;;;24.10;44.10;;;;;;3032242;19;4792;-23
2024/04/14 04:39:24;;;;;;;;;;;24.10;44.10;;;;;;3054218;19;4709;-23
2024/04/14 04:40:24;;;;;;;;;;;24.10;44.00;;;;;;3054316;19;4671;-23
2024/04/14 04:41:25;;;;;;;;;;;24.10;44.00;;;;;;3033212;19;4567;-25
2024/04/14 04:42:25;;;;;;;;;;;24.10;44.00;;;;;;3053787;19;4679;-24
2024/04/14 04:43:27;;;;;;;;;;;24.00;44.00;;;;;;3055034;19;4676;-24
2024/04/14 04:44:28;;;;;;;;;;;24.10;44.00;;;;;;3032151;19;4579;-26
2024/04/14 04:45:29;;;;;;;;;;;24.10;44.00;;;;;;3052000;19;4814;-24
2024/04/14 04:46:30;;;;;;;;;;;24.10;44.00;;;;;;3031763;19;4680;-25
2024/04/14 04:47:30;;;;;;;;;;;24.10;44.00;;;;;;3053952;19;4773;-23
2024/04/14 04:48:31;;;;;;;;;;;24.00;43.90;;;;;;3053485;19;4730;-23
2024/04/14 04:49:32;;;;;;;;;;;24.10;44.00;;;;;;3033263;19;5062;-24
2024/04/14 04:50:32;;;;;;;;;;;24.10;43.90;;;;;;3054466;19;5168;-25
2024/04/14 04:51:33;;;;;;;;;;;22.90;43.20;;;;;;3053801;19;4754;-23
2024/04/14 04:52:33;;;;;;;;;;;24.10;44.00;;;;;;3032678;19;4657;-24
2024/04/14 04:53:34;;;;;;;;;;;24.10;44.00;;;;;;3053901;19;4666;-23
2024/04/14 04:54:35;;;;;;;;;;;24.10;44.00;;;;;;3033076;19;4716;-25
2024/04/14 04:55:35;;;;;;;;;;;24.00;44.00;;;;;;3054330;19;4720;-24
2024/04/14 04:56:36;;;;;;;;;;;24.00;43.90;;;;;;3053058;19;4676;-25
2024/04/14 04:57:36;;;;;;;;;;;24.10;44.00;;;;;;3032986;19;4533;-26
2024/04/14 04:58:37;;;;;;;;;;;24.00;43.90;;;;;;3053446;19;4820;-26
2024/04/14 04:59:38;;;;;;;;;;;24.00;44.10;;;;;;3033017;19;4659;-24
2024/04/14 05:00:38;;;;;;;;;;;24.00;44.00;;;;;;3053747;19;4724;-25
2024/04/14 05:01:39;;;;;;;;;;;23.90;44.00;;;;;;3053213;19;4711;-26
2024/04/14 05:02:40;;;;;;;;;;;24.00;44.10;;;;;;3031076;19;4728;-24
2024/04/14 05:03:40;;;;;;;;;;;24.00;44.20;;;;;;3053510;19;4616;-28
2024/04/14 05:04:41;;;;;;;;;;;24.00;44.20;;;;;;3053508;19;4728;-25
2024/04/14 05:05:42;;;;;;;;;;;24.00;44.20;;;;;;3029497;19;4621;-24
2024/04/14 05:06:42;;;;;;;;;;;24.00;44.20;;;;;;3047974;19;4728;-24
2024/04/14 05:07:43;;;;;;;;;;;23.90;44.20;;;;;;3028202;19;4739;-25
2024/04/14 05:08:44;;;;;;;;;;;23.90;44.20;;;;;;3051722;19;4723;-26
2024/04/14 05:09:44;;;;;;;;;;;23.90;44.20;;;;;;3050857;19;4740;-26
2024/04/14 05:10:45;;;;;;;;;;;23.90;44.30;;;;;;3028968;19;4702;-25
2024/04/14 05:11:45;;;;;;;;;;;23.90;44.30;;;;;;3051090;19;4715;-25
2024/04/14 05:12:46;;;;;;;;;;;23.90;44.50;;;;;;3052829;19;4800;-24
2024/04/14 05:13:47;;;;;;;;;;;23.90;44.50;;;;;;3032066;19;4567;-24
2024/04/14 05:14:47;;;;;;;;;;;23.90;44.40;;;;;;3050807;19;4707;-24
2024/04/14 05:15:48;;;;;;;;;;;23.80;44.40;;;;;;3030743;19;4709;-26
2024/04/14 05:16:49;;;;;;;;;;;23.90;44.50;;;;;;3050949;19;4777;-25
2024/04/14 05:17:49;;;;;;;;;;;23.80;44.50;;;;;;3052626;19;4658;-24
2024/04/14 05:18:50;;;;;;;;;;;23.80;44.50;;;;;;3031627;19;4785;-24
2024/04/14 05:19:51;;;;;;;;;;;23.80;44.50;;;;;;3054201;19;4657;-25
2024/04/14 05:20:51;;;;;;;;;;;23.80;44.60;;;;;;3049497;19;4660;-26
2024/04/14 05:21:52;;;;;;;;;;;23.80;44.60;;;;;;3030281;19;4613;-25
2024/04/14 05:22:52;;;;;;;;;;;23.50;44.50;;;;;;3052754;19;4685;-27
2024/04/14 05:23:53;;;;;;;;;;;23.80;44.60;;;;;;3032447;19;4737;-24
2024/04/14 05:24:54;;;;;;;;;;;23.70;44.70;;;;;;3052208;19;4797;-23
2024/04/14 05:25:54;;;;;;;;;;;23.80;44.70;;;;;;3054582;19;4599;-25
2024/04/14 05:26:55;;;;;;;;;;;23.80;44.70;;;;;;3031091;19;4697;-24
2024/04/14 05:27:55;;;;;;;;;;;23.70;44.70;;;;;;3051415;19;4718;-24
2024/04/14 05:28:56;;;;;;;;;;;23.70;44.70;;;;;;3031148;19;4699;-26
2024/04/14 05:29:57;;;;;;;;;;;23.70;44.80;;;;;;3052653;19;4645;-25
2024/04/14 05:30:57;;;;;;;;;;;23.70;44.80;;;;;;3052777;19;4625;-25
2024/04/14 05:31:58;;;;;;;;;;;23.70;44.80;;;;;;3032776;19;4622;-25
2024/04/14 05:32:59;;;;;;;;;;;22.80;44.30;;;;;;3053574;19;4603;-23
2024/04/14 05:33:59;;;;;;;;;;;23.70;44.80;;;;;;3053682;19;4641;-23
2024/04/14 05:35:00;;;;;;;;;;;23.70;44.90;;;;;;3030391;19;4575;-25
2024/04/14 05:36:00;;;;;;;;;;;23.70;44.90;;;;;;3052714;19;4638;-25
2024/04/14 05:37:02;;;;;;;;;;;23.70;44.80;;;;;;3031258;19;4583;-25
2024/04/14 05:38:02;;;;;;;;;;;23.70;44.90;;;;;;3052581;19;4646;-26
2024/04/14 05:39:03;;;;;;;;;;;23.70;44.90;;;;;;3052441;19;4709;-24
2024/04/14 05:40:04;;;;;;;;;;;23.70;45.00;;;;;;3032831;19;4567;-28
2024/04/14 05:41:04;;;;;;;;;;;23.70;45.00;;;;;;3053778;19;4593;-26
2024/04/14 05:42:05;;;;;;;;;;;23.60;45.00;;;;;;3052194;19;4656;-23
2024/04/14 05:43:06;;;;;;;;;;;23.70;45.00;;;;;;3031426;19;4594;-24
2024/04/14 05:44:06;;;;;;;;;;;23.70;45.10;;;;;;3048724;19;21832;-25
2024/04/14 05:45:07;;;;;;;;;;;23.70;45.20;;;;;;3029949;19;4662;-24
2024/04/14 05:46:08;;;;;;;;;;;23.70;45.10;;;;;;3051813;19;4737;-24
2024/04/14 05:47:09;;;;;;;;;;;23.60;45.10;;;;;;3052360;19;4837;-25
2024/04/14 05:48:10;;;;;;;;;;;23.60;45.20;;;;;;3030439;19;4591;-24
2024/04/14 05:49:10;;;;;;;;;;;23.70;45.20;;;;;;3051030;19;1357;-23
2024/04/14 05:50:11;;;;;;;;;;;23.60;45.10;;;;;;3053434;19;4636;-24
2024/04/14 05:51:12;;;;;;;;;;;23.70;45.30;;;;;;3029412;19;4623;-24
2024/04/14 05:52:12;;;;;;;;;;;23.70;45.30;;;;;;3051186;19;4632;-26
2024/04/14 05:53:13;;;;;;;;;;;23.70;45.30;;;;;;3030832;19;4589;-24
2024/04/14 05:54:13;;;;;;;;;;;23.70;45.20;;;;;;3049012;19;4728;-24
2024/04/14 05:55:14;;;;;;;;;;;23.80;45.30;;;;;;3051606;19;4671;-24
2024/04/14 05:56:15;;;;;;;;;;;23.80;45.30;;;;;;3032100;19;4582;-25
2024/04/14 05:57:15;;;;;;;;;;;23.80;45.30;;;;;;3050740;19;1499;-24
2024/04/14 05:58:16;;;;;;;;;;;23.80;45.30;;;;;;3030194;19;4773;-32
2024/04/14 05:59:16;;;;;;;;;;;23.80;45.30;;;;;;3052401;19;4857;-30